sensor_id;sensor_type;location;lat;lon;timestamp;temperature;humidity
41838;DHT22;27511;52.042;5.178;2024-02-21T00:02:07;12.30;1.00
41838;DHT22;27511;52.042;5.178;2024-02-21T00:04:33;12.30;1.00
41838;DHT22;27511;52.042;5.178;2024-02-21T00:06:59;12.20;1.00
41838;DHT22;27511;52.042;5.178;2024-02-21T00:09:24;12.10;1.00
41838;DHT22;27511;52.042;5.178;2024-02-21T00:11:50;12.20;1.00
41838;DHT22;27511;52.042;5.178;2024-02-21T00:14:15;12.10;1.00
41838;DHT22;27511;52.042;5.178;2024-02-21T00:16:41;12.10;1.00
41838;DHT22;27511;52.042;5.178;2024-02-21T00:19:07;12.00;1.00
41838;DHT22;27511;52.042;5.178;2024-02-21T00:21:32;12.00;1.00
41838;DHT22;27511;52.042;5.178;2024-02-21T00:23:58;11.90;1.00
41838;DHT22;27511;52.042;5.178;2024-02-21T00:26:23;11.90;1.00
41838;DHT22;27511;52.042;5.178;2024-02-21T00:28:49;11.80;1.00
41838;DHT22;27511;52.042;5.178;2024-02-21T00:31:15;11.90;1.00
41838;DHT22;27511;52.042;5.178;2024-02-21T00:33:40;12.10;1.00
41838;DHT22;27511;52.042;5.178;2024-02-21T00:36:06;12.20;1.00
41838;DHT22;27511;52.042;5.178;2024-02-21T00:38:32;12.30;1.00
41838;DHT22;27511;52.042;5.178;2024-02-21T00:40:58;12.40;1.00
41838;DHT22;27511;52.042;5.178;2024-02-21T00:43:23;12.40;1.00
41838;DHT22;27511;52.042;5.178;2024-02-21T00:45:50;12.30;1.00
41838;DHT22;27511;52.042;5.178;2024-02-21T00:48:16;12.10;1.00
41838;DHT22;27511;52.042;5.178;2024-02-21T00:50:41;12.20;1.00
41838;DHT22;27511;52.042;5.178;2024-02-21T00:53:07;12.30;1.00
41838;DHT22;27511;52.042;5.178;2024-02-21T00:55:32;12.20;1.00
41838;DHT22;27511;52.042;5.178;2024-02-21T00:57:58;12.30;1.00
41838;DHT22;27511;52.042;5.178;2024-02-21T01:00:23;11.90;1.00
41838;DHT22;27511;52.042;5.178;2024-02-21T01:02:49;11.90;1.00
41838;DHT22;27511;52.042;5.178;2024-02-21T01:05:14;11.80;1.00
41838;DHT22;27511;52.042;5.178;2024-02-21T01:07:40;12.00;1.00
41838;DHT22;27511;52.042;5.178;2024-02-21T01:10:06;11.90;1.00
41838;DHT22;27511;52.042;5.178;2024-02-21T01:12:32;11.90;1.00
41838;DHT22;27511;52.042;5.178;2024-02-21T01:14:57;12.10;1.00
41838;DHT22;27511;52.042;5.178;2024-02-21T01:17:23;12.20;1.00
41838;DHT22;27511;52.042;5.178;2024-02-21T01:19:49;12.10;1.00
41838;DHT22;27511;52.042;5.178;2024-02-21T01:22:14;12.20;1.00
41838;DHT22;27511;52.042;5.178;2024-02-21T01:24:41;12.10;1.00
41838;DHT22;27511;52.042;5.178;2024-02-21T01:27:07;12.20;1.00
41838;DHT22;27511;52.042;5.178;2024-02-21T01:29:32;12.10;1.00
41838;DHT22;27511;52.042;5.178;2024-02-21T01:31:58;11.90;1.00
41838;DHT22;27511;52.042;5.178;2024-02-21T01:34:23;11.80;1.00
41838;DHT22;27511;52.042;5.178;2024-02-21T01:36:49;11.80;1.00
41838;DHT22;27511;52.042;5.178;2024-02-21T01:39:15;11.90;1.00
41838;DHT22;27511;52.042;5.178;2024-02-21T01:41:40;12.00;1.00
41838;DHT22;27511;52.042;5.178;2024-02-21T01:44:06;12.10;1.00
41838;DHT22;27511;52.042;5.178;2024-02-21T01:46:31;12.40;1.00
41838;DHT22;27511;52.042;5.178;2024-02-21T01:48:57;12.40;1.00
41838;DHT22;27511;52.042;5.178;2024-02-21T01:51:36;12.40;1.00
41838;DHT22;27511;52.042;5.178;2024-02-21T01:54:02;12.10;1.00
41838;DHT22;27511;52.042;5.178;2024-02-21T01:56:28;12.30;1.00
41838;DHT22;27511;52.042;5.178;2024-02-21T01:58:54;12.20;1.00
41838;DHT22;27511;52.042;5.178;2024-02-21T02:01:21;12.30;1.00
41838;DHT22;27511;52.042;5.178;2024-02-21T02:03:47;12.60;1.00
41838;DHT22;27511;52.042;5.178;2024-02-21T02:06:13;12.50;1.00
41838;DHT22;27511;52.042;5.178;2024-02-21T02:08:38;12.50;1.00
41838;DHT22;27511;52.042;5.178;2024-02-21T02:11:04;12.60;1.00
41838;DHT22;27511;52.042;5.178;2024-02-21T02:13:30;12.40;1.00
41838;DHT22;27511;52.042;5.178;2024-02-21T02:15:55;12.30;1.00
41838;DHT22;27511;52.042;5.178;2024-02-21T02:18:21;12.20;1.00
41838;DHT22;27511;52.042;5.178;2024-02-21T02:20:47;12.20;1.00
41838;DHT22;27511;52.042;5.178;2024-02-21T02:25:50;12.00;1.00
41838;DHT22;27511;52.042;5.178;2024-02-21T02:28:19;11.90;1.00
41838;DHT22;27511;52.042;5.178;2024-02-21T02:30:45;11.90;1.00
41838;DHT22;27511;52.042;5.178;2024-02-21T02:33:11;12.00;1.00
41838;DHT22;27511;52.042;5.178;2024-02-21T02:35:37;12.20;1.00
41838;DHT22;27511;52.042;5.178;2024-02-21T02:38:03;12.40;1.00
41838;DHT22;27511;52.042;5.178;2024-02-21T02:40:29;12.40;1.00
41838;DHT22;27511;52.042;5.178;2024-02-21T02:42:55;12.20;1.00
41838;DHT22;27511;52.042;5.178;2024-02-21T02:45:21;12.40;1.00
41838;DHT22;27511;52.042;5.178;2024-02-21T02:47:54;12.50;1.00
41838;DHT22;27511;52.042;5.178;2024-02-21T02:50:20;12.30;1.00
41838;DHT22;27511;52.042;5.178;2024-02-21T02:52:46;12.40;1.00
41838;DHT22;27511;52.042;5.178;2024-02-21T02:55:11;12.30;1.00
41838;DHT22;27511;52.042;5.178;2024-02-21T02:57:37;12.40;1.00
41838;DHT22;27511;52.042;5.178;2024-02-21T03:00:04;12.30;1.00
41838;DHT22;27511;52.042;5.178;2024-02-21T03:02:30;12.30;1.00
41838;DHT22;27511;52.042;5.178;2024-02-21T03:04:57;12.40;1.00
41838;DHT22;27511;52.042;5.178;2024-02-21T03:07:23;12.40;1.00
41838;DHT22;27511;52.042;5.178;2024-02-21T03:09:50;12.40;1.00
41838;DHT22;27511;52.042;5.178;2024-02-21T03:12:15;12.30;1.00
41838;DHT22;27511;52.042;5.178;2024-02-21T03:14:52;12.50;1.00
41838;DHT22;27511;52.042;5.178;2024-02-21T03:17:17;12.40;1.00
41838;DHT22;27511;52.042;5.178;2024-02-21T03:19:43;12.50;1.00
41838;DHT22;27511;52.042;5.178;2024-02-21T03:22:08;12.50;1.00
41838;DHT22;27511;52.042;5.178;2024-02-21T03:24:34;12.40;1.00
41838;DHT22;27511;52.042;5.178;2024-02-21T03:27:00;12.30;1.00
41838;DHT22;27511;52.042;5.178;2024-02-21T03:29:25;12.30;1.00
41838;DHT22;27511;52.042;5.178;2024-02-21T03:31:51;12.50;1.00
41838;DHT22;27511;52.042;5.178;2024-02-21T03:34:16;12.40;1.00
41838;DHT22;27511;52.042;5.178;2024-02-21T03:36:42;12.50;1.00
41838;DHT22;27511;52.042;5.178;2024-02-21T03:39:07;12.50;1.00
41838;DHT22;27511;52.042;5.178;2024-02-21T03:41:34;12.50;99.90
41838;DHT22;27511;52.042;5.178;2024-02-21T03:44:00;12.20;1.00
41838;DHT22;27511;52.042;5.178;2024-02-21T03:46:27;12.20;1.00
41838;DHT22;27511;52.042;5.178;2024-02-21T03:48:53;12.30;1.00
41838;DHT22;27511;52.042;5.178;2024-02-21T03:51:18;12.10;1.00
41838;DHT22;27511;52.042;5.178;2024-02-21T03:53:44;12.20;1.00
41838;DHT22;27511;52.042;5.178;2024-02-21T03:56:10;12.00;1.00
41838;DHT22;27511;52.042;5.178;2024-02-21T03:58:35;11.80;1.00
41838;DHT22;27511;52.042;5.178;2024-02-21T04:01:01;12.20;1.00
41838;DHT22;27511;52.042;5.178;2024-02-21T04:03:27;12.30;1.00
41838;DHT22;27511;52.042;5.178;2024-02-21T04:05:53;12.10;1.00
41838;DHT22;27511;52.042;5.178;2024-02-21T04:08:19;12.10;1.00
41838;DHT22;27511;52.042;5.178;2024-02-21T04:10:44;11.90;1.00
41838;DHT22;27511;52.042;5.178;2024-02-21T04:13:10;11.90;1.00
41838;DHT22;27511;52.042;5.178;2024-02-21T04:15:36;11.80;1.00
41838;DHT22;27511;52.042;5.178;2024-02-21T04:18:02;11.70;1.00
41838;DHT22;27511;52.042;5.178;2024-02-21T04:20:46;11.90;1.00
41838;DHT22;27511;52.042;5.178;2024-02-21T04:23:14;12.00;1.00
41838;DHT22;27511;52.042;5.178;2024-02-21T04:25:40;11.90;1.00
41838;DHT22;27511;52.042;5.178;2024-02-21T04:28:05;12.00;1.00
41838;DHT22;27511;52.042;5.178;2024-02-21T04:30:31;12.20;1.00
41838;DHT22;27511;52.042;5.178;2024-02-21T04:32:56;12.20;1.00
41838;DHT22;27511;52.042;5.178;2024-02-21T04:35:22;12.20;1.00
41838;DHT22;27511;52.042;5.178;2024-02-21T04:37:49;12.30;1.00
41838;DHT22;27511;52.042;5.178;2024-02-21T04:40:15;12.30;1.00
41838;DHT22;27511;52.042;5.178;2024-02-21T04:42:42;12.30;1.00
41838;DHT22;27511;52.042;5.178;2024-02-21T04:45:08;12.40;1.00
41838;DHT22;27511;52.042;5.178;2024-02-21T04:47:33;12.50;99.90
41838;DHT22;27511;52.042;5.178;2024-02-21T04:50:00;12.50;99.90
41838;DHT22;27511;52.042;5.178;2024-02-21T04:52:25;12.50;99.90
41838;DHT22;27511;52.042;5.178;2024-02-21T04:54:51;12.30;1.00
41838;DHT22;27511;52.042;5.178;2024-02-21T04:57:17;12.30;1.00
41838;DHT22;27511;52.042;5.178;2024-02-21T04:59:46;12.40;1.00
41838;DHT22;27511;52.042;5.178;2024-02-21T05:02:13;12.50;99.90
41838;DHT22;27511;52.042;5.178;2024-02-21T05:04:39;12.50;99.90
41838;DHT22;27511;52.042;5.178;2024-02-21T05:07:07;12.60;99.90
41838;DHT22;27511;52.042;5.178;2024-02-21T05:09:32;12.50;99.90
41838;DHT22;27511;52.042;5.178;2024-02-21T05:11:58;12.30;1.00
41838;DHT22;27511;52.042;5.178;2024-02-21T05:14:26;12.30;1.00
41838;DHT22;27511;52.042;5.178;2024-02-21T05:16:53;12.20;1.00
41838;DHT22;27511;52.042;5.178;2024-02-21T05:19:18;12.50;1.00
41838;DHT22;27511;52.042;5.178;2024-02-21T05:24:20;12.60;99.90
41838;DHT22;27511;52.042;5.178;2024-02-21T05:26:46;12.50;99.90
41838;DHT22;27511;52.042;5.178;2024-02-21T05:29:11;12.40;99.90
41838;DHT22;27511;52.042;5.178;2024-02-21T05:31:55;12.20;99.90
41838;DHT22;27511;52.042;5.178;2024-02-21T05:34:22;12.20;1.00
41838;DHT22;27511;52.042;5.178;2024-02-21T05:36:48;12.40;99.90
41838;DHT22;27511;52.042;5.178;2024-02-21T05:39:17;12.50;99.90
41838;DHT22;27511;52.042;5.178;2024-02-21T05:41:43;12.60;99.90
41838;DHT22;27511;52.042;5.178;2024-02-21T05:44:09;12.50;99.90
41838;DHT22;27511;52.042;5.178;2024-02-21T05:46:37;12.60;99.90
41838;DHT22;27511;52.042;5.178;2024-02-21T05:49:03;12.30;99.90
41838;DHT22;27511;52.042;5.178;2024-02-21T05:51:32;12.40;99.90
41838;DHT22;27511;52.042;5.178;2024-02-21T05:53:58;12.40;99.90
41838;DHT22;27511;52.042;5.178;2024-02-21T05:56:24;12.40;99.90
41838;DHT22;27511;52.042;5.178;2024-02-21T05:58:49;12.40;99.90
41838;DHT22;27511;52.042;5.178;2024-02-21T06:01:15;12.00;1.00
41838;DHT22;27511;52.042;5.178;2024-02-21T06:03:40;12.20;1.00
41838;DHT22;27511;52.042;5.178;2024-02-21T06:06:06;12.10;1.00
41838;DHT22;27511;52.042;5.178;2024-02-21T06:08:32;11.80;1.00
41838;DHT22;27511;52.042;5.178;2024-02-21T06:10:57;12.10;1.00
41838;DHT22;27511;52.042;5.178;2024-02-21T06:13:23;12.10;1.00
41838;DHT22;27511;52.042;5.178;2024-02-21T06:15:50;12.30;1.00
41838;DHT22;27511;52.042;5.178;2024-02-21T06:18:19;12.40;1.00
41838;DHT22;27511;52.042;5.178;2024-02-21T06:20:45;12.40;1.00
41838;DHT22;27511;52.042;5.178;2024-02-21T06:23:12;12.50;99.90
41838;DHT22;27511;52.042;5.178;2024-02-21T06:25:38;12.10;1.00
41838;DHT22;27511;52.042;5.178;2024-02-21T06:28:04;12.30;1.00
41838;DHT22;27511;52.042;5.178;2024-02-21T06:30:30;12.40;99.90
41838;DHT22;27511;52.042;5.178;2024-02-21T06:32:56;12.40;99.90
41838;DHT22;27511;52.042;5.178;2024-02-21T06:35:22;12.40;99.90
41838;DHT22;27511;52.042;5.178;2024-02-21T06:37:50;12.30;1.00
41838;DHT22;27511;52.042;5.178;2024-02-21T06:40:17;12.20;99.90
41838;DHT22;27511;52.042;5.178;2024-02-21T06:42:43;12.20;1.00
41838;DHT22;27511;52.042;5.178;2024-02-21T06:45:09;12.30;99.90
41838;DHT22;27511;52.042;5.178;2024-02-21T06:47:34;12.50;99.90
41838;DHT22;27511;52.042;5.178;2024-02-21T06:50:00;12.40;99.90
41838;DHT22;27511;52.042;5.178;2024-02-21T06:52:26;12.30;99.90
41838;DHT22;27511;52.042;5.178;2024-02-21T06:54:52;12.40;99.90
41838;DHT22;27511;52.042;5.178;2024-02-21T06:57:17;12.00;1.00
41838;DHT22;27511;52.042;5.178;2024-02-21T06:59:43;12.10;1.00
41838;DHT22;27511;52.042;5.178;2024-02-21T07:02:09;12.20;1.00
41838;DHT22;27511;52.042;5.178;2024-02-21T07:04:35;12.20;1.00
41838;DHT22;27511;52.042;5.178;2024-02-21T07:07:00;12.30;99.90
41838;DHT22;27511;52.042;5.178;2024-02-21T07:09:26;12.50;99.90
41838;DHT22;27511;52.042;5.178;2024-02-21T07:11:54;12.30;99.90
41838;DHT22;27511;52.042;5.178;2024-02-21T07:14:19;12.30;99.90
41838;DHT22;27511;52.042;5.178;2024-02-21T07:16:45;12.30;99.90
41838;DHT22;27511;52.042;5.178;2024-02-21T07:19:11;12.40;99.90
41838;DHT22;27511;52.042;5.178;2024-02-21T07:21:36;12.20;99.90
41838;DHT22;27511;52.042;5.178;2024-02-21T07:24:09;12.20;1.00
41838;DHT22;27511;52.042;5.178;2024-02-21T07:26:35;12.40;99.90
41838;DHT22;27511;52.042;5.178;2024-02-21T07:29:00;12.30;99.90
41838;DHT22;27511;52.042;5.178;2024-02-21T07:31:26;12.20;99.90
41838;DHT22;27511;52.042;5.178;2024-02-21T07:33:52;12.00;1.00
41838;DHT22;27511;52.042;5.178;2024-02-21T07:36:29;12.00;1.00
41838;DHT22;27511;52.042;5.178;2024-02-21T07:38:56;11.90;1.00
41838;DHT22;27511;52.042;5.178;2024-02-21T07:41:21;11.90;1.00
41838;DHT22;27511;52.042;5.178;2024-02-21T07:43:47;12.00;1.00
41838;DHT22;27511;52.042;5.178;2024-02-21T07:46:17;12.00;1.00
41838;DHT22;27511;52.042;5.178;2024-02-21T07:48:44;12.00;1.00
41838;DHT22;27511;52.042;5.178;2024-02-21T07:51:16;12.20;1.00
41838;DHT22;27511;52.042;5.178;2024-02-21T07:53:43;12.10;1.00
41838;DHT22;27511;52.042;5.178;2024-02-21T07:56:13;12.10;1.00
41838;DHT22;27511;52.042;5.178;2024-02-21T07:58:40;12.00;99.90
41838;DHT22;27511;52.042;5.178;2024-02-21T08:01:06;12.20;99.90
41838;DHT22;27511;52.042;5.178;2024-02-21T08:03:32;12.40;99.90
41838;DHT22;27511;52.042;5.178;2024-02-21T08:05:57;12.10;99.90
41838;DHT22;27511;52.042;5.178;2024-02-21T08:08:23;12.10;99.90
41838;DHT22;27511;52.042;5.178;2024-02-21T08:10:50;12.00;1.00
41838;DHT22;27511;52.042;5.178;2024-02-21T08:13:15;12.10;1.00
41838;DHT22;27511;52.042;5.178;2024-02-21T08:15:41;12.00;1.00
41838;DHT22;27511;52.042;5.178;2024-02-21T08:18:08;12.20;99.90
41838;DHT22;27511;52.042;5.178;2024-02-21T08:20:33;12.20;99.90
41838;DHT22;27511;52.042;5.178;2024-02-21T08:22:59;12.10;1.00
41838;DHT22;27511;52.042;5.178;2024-02-21T08:25:25;12.10;99.90
41838;DHT22;27511;52.042;5.178;2024-02-21T08:27:57;11.90;1.00
41838;DHT22;27511;52.042;5.178;2024-02-21T08:30:22;11.80;1.00
41838;DHT22;27511;52.042;5.178;2024-02-21T08:32:48;11.90;1.00
41838;DHT22;27511;52.042;5.178;2024-02-21T08:35:14;12.20;1.00
41838;DHT22;27511;52.042;5.178;2024-02-21T08:37:39;12.00;1.00
41838;DHT22;27511;52.042;5.178;2024-02-21T08:40:05;12.20;1.00
41838;DHT22;27511;52.042;5.178;2024-02-21T08:42:39;12.30;99.90
41838;DHT22;27511;52.042;5.178;2024-02-21T08:45:05;12.10;99.90
41838;DHT22;27511;52.042;5.178;2024-02-21T08:47:30;12.10;99.90
41838;DHT22;27511;52.042;5.178;2024-02-21T08:49:56;12.00;1.00
41838;DHT22;27511;52.042;5.178;2024-02-21T08:52:22;12.00;1.00
41838;DHT22;27511;52.042;5.178;2024-02-21T08:54:47;12.00;1.00
41838;DHT22;27511;52.042;5.178;2024-02-21T08:57:13;12.00;99.90
41838;DHT22;27511;52.042;5.178;2024-02-21T08:59:39;11.80;1.00
41838;DHT22;27511;52.042;5.178;2024-02-21T09:02:05;12.00;1.00
41838;DHT22;27511;52.042;5.178;2024-02-21T09:04:32;12.10;1.00
41838;DHT22;27511;52.042;5.178;2024-02-21T09:06:59;12.10;99.90
41838;DHT22;27511;52.042;5.178;2024-02-21T09:09:24;12.00;1.00
41838;DHT22;27511;52.042;5.178;2024-02-21T09:11:50;12.00;1.00
41838;DHT22;27511;52.042;5.178;2024-02-21T09:14:16;12.40;99.90
41838;DHT22;27511;52.042;5.178;2024-02-21T09:16:42;12.60;99.90
41838;DHT22;27511;52.042;5.178;2024-02-21T09:19:07;12.30;99.90
41838;DHT22;27511;52.042;5.178;2024-02-21T09:21:38;12.30;99.90
41838;DHT22;27511;52.042;5.178;2024-02-21T09:24:05;11.80;1.00
41838;DHT22;27511;52.042;5.178;2024-02-21T09:26:31;12.00;99.90
41838;DHT22;27511;52.042;5.178;2024-02-21T09:28:57;12.30;99.90
41838;DHT22;27511;52.042;5.178;2024-02-21T09:31:22;12.30;99.90
41838;DHT22;27511;52.042;5.178;2024-02-21T09:33:48;12.00;99.90
41838;DHT22;27511;52.042;5.178;2024-02-21T09:36:14;12.20;99.90
41838;DHT22;27511;52.042;5.178;2024-02-21T09:38:40;12.30;99.90
41838;DHT22;27511;52.042;5.178;2024-02-21T09:41:16;12.10;99.90
41838;DHT22;27511;52.042;5.178;2024-02-21T09:43:45;12.20;99.90
41838;DHT22;27511;52.042;5.178;2024-02-21T09:46:18;12.30;99.90
41838;DHT22;27511;52.042;5.178;2024-02-21T09:51:14;12.30;99.90
41838;DHT22;27511;52.042;5.178;2024-02-21T09:53:40;12.30;99.90
41838;DHT22;27511;52.042;5.178;2024-02-21T09:56:10;12.20;99.90
41838;DHT22;27511;52.042;5.178;2024-02-21T09:58:36;12.20;99.90
41838;DHT22;27511;52.042;5.178;2024-02-21T10:01:03;12.30;99.90
41838;DHT22;27511;52.042;5.178;2024-02-21T10:03:32;12.30;99.90
41838;DHT22;27511;52.042;5.178;2024-02-21T10:05:59;12.40;99.90
41838;DHT22;27511;52.042;5.178;2024-02-21T10:08:26;12.50;99.90
41838;DHT22;27511;52.042;5.178;2024-02-21T10:10:55;12.50;99.90
41838;DHT22;27511;52.042;5.178;2024-02-21T10:13:28;12.80;99.90
41838;DHT22;27511;52.042;5.178;2024-02-21T10:16:07;12.80;99.90
41838;DHT22;27511;52.042;5.178;2024-02-21T10:18:36;12.80;99.90
41838;DHT22;27511;52.042;5.178;2024-02-21T10:21:07;12.80;99.90
41838;DHT22;27511;52.042;5.178;2024-02-21T10:23:43;12.80;99.90
41838;DHT22;27511;52.042;5.178;2024-02-21T10:26:09;12.90;99.90
41838;DHT22;27511;52.042;5.178;2024-02-21T10:28:35;12.70;99.90
41838;DHT22;27511;52.042;5.178;2024-02-21T10:31:00;12.80;99.90
41838;DHT22;27511;52.042;5.178;2024-02-21T10:33:26;12.80;99.90
41838;DHT22;27511;52.042;5.178;2024-02-21T10:35:53;12.80;99.90
41838;DHT22;27511;52.042;5.178;2024-02-21T10:38:19;12.80;99.90
41838;DHT22;27511;52.042;5.178;2024-02-21T10:40:47;12.60;99.90
41838;DHT22;27511;52.042;5.178;2024-02-21T10:43:14;12.70;99.90
41838;DHT22;27511;52.042;5.178;2024-02-21T10:45:41;13.00;99.90
41838;DHT22;27511;52.042;5.178;2024-02-21T10:48:16;13.10;99.90
41838;DHT22;27511;52.042;5.178;2024-02-21T10:50:57;13.10;99.90
41838;DHT22;27511;52.042;5.178;2024-02-21T10:58:40;12.60;99.90
41838;DHT22;27511;52.042;5.178;2024-02-21T11:01:07;12.70;99.90
41838;DHT22;27511;52.042;5.178;2024-02-21T11:03:33;13.00;99.90
41838;DHT22;27511;52.042;5.178;2024-02-21T11:06:00;12.90;99.90
41838;DHT22;27511;52.042;5.178;2024-02-21T11:08:26;12.80;99.90
41838;DHT22;27511;52.042;5.178;2024-02-21T11:10:57;12.80;99.90
41838;DHT22;27511;52.042;5.178;2024-02-21T11:13:40;12.90;99.90
41838;DHT22;27511;52.042;5.178;2024-02-21T11:16:10;13.00;99.90
41838;DHT22;27511;52.042;5.178;2024-02-21T11:18:39;13.10;99.90
41838;DHT22;27511;52.042;5.178;2024-02-21T11:21:04;12.90;99.90
41838;DHT22;27511;52.042;5.178;2024-02-21T11:23:31;12.80;99.90
41838;DHT22;27511;52.042;5.178;2024-02-21T11:26:06;13.00;99.90
41838;DHT22;27511;52.042;5.178;2024-02-21T11:28:32;12.80;99.90
41838;DHT22;27511;52.042;5.178;2024-02-21T11:31:13;12.80;99.90
41838;DHT22;27511;52.042;5.178;2024-02-21T11:33:42;12.60;99.90
41838;DHT22;27511;52.042;5.178;2024-02-21T11:36:09;12.70;99.90
41838;DHT22;27511;52.042;5.178;2024-02-21T11:38:35;12.50;99.90
41838;DHT22;27511;52.042;5.178;2024-02-21T11:41:01;12.60;99.90
41838;DHT22;27511;52.042;5.178;2024-02-21T11:43:26;12.70;99.90
41838;DHT22;27511;52.042;5.178;2024-02-21T11:46:02;12.70;99.90
41838;DHT22;27511;52.042;5.178;2024-02-21T11:48:29;12.90;99.90
41838;DHT22;27511;52.042;5.178;2024-02-21T11:50:56;12.90;99.90
41838;DHT22;27511;52.042;5.178;2024-02-21T11:53:22;12.80;99.90
41838;DHT22;27511;52.042;5.178;2024-02-21T11:55:47;12.80;99.90
41838;DHT22;27511;52.042;5.178;2024-02-21T11:58:13;12.90;99.90
41838;DHT22;27511;52.042;5.178;2024-02-21T12:00:39;13.10;99.90
41838;DHT22;27511;52.042;5.178;2024-02-21T12:03:05;13.20;99.90
41838;DHT22;27511;52.042;5.178;2024-02-21T12:05:32;13.00;99.90
41838;DHT22;27511;52.042;5.178;2024-02-21T12:07:58;13.30;99.90
41838;DHT22;27511;52.042;5.178;2024-02-21T12:10:26;13.30;99.90
41838;DHT22;27511;52.042;5.178;2024-02-21T12:12:53;13.20;99.90
41838;DHT22;27511;52.042;5.178;2024-02-21T12:15:20;13.10;99.90
41838;DHT22;27511;52.042;5.178;2024-02-21T12:17:46;13.10;99.90
41838;DHT22;27511;52.042;5.178;2024-02-21T12:20:11;13.20;99.90
41838;DHT22;27511;52.042;5.178;2024-02-21T12:22:38;13.20;99.90
41838;DHT22;27511;52.042;5.178;2024-02-21T12:25:20;13.20;99.90
41838;DHT22;27511;52.042;5.178;2024-02-21T12:27:49;13.00;99.90
41838;DHT22;27511;52.042;5.178;2024-02-21T12:30:15;13.00;99.90
41838;DHT22;27511;52.042;5.178;2024-02-21T12:32:41;12.80;99.90
41838;DHT22;27511;52.042;5.178;2024-02-21T12:35:07;12.60;99.90
41838;DHT22;27511;52.042;5.178;2024-02-21T12:37:33;12.60;99.90
41838;DHT22;27511;52.042;5.178;2024-02-21T12:39:59;12.90;99.90
41838;DHT22;27511;52.042;5.178;2024-02-21T12:42:25;13.00;99.90
41838;DHT22;27511;52.042;5.178;2024-02-21T12:44:54;13.20;99.90
41838;DHT22;27511;52.042;5.178;2024-02-21T12:47:20;13.30;99.90
41838;DHT22;27511;52.042;5.178;2024-02-21T12:49:49;13.20;99.90
41838;DHT22;27511;52.042;5.178;2024-02-21T12:52:14;13.30;99.90
41838;DHT22;27511;52.042;5.178;2024-02-21T12:54:40;13.40;99.90
41838;DHT22;27511;52.042;5.178;2024-02-21T12:57:06;13.60;99.90
41838;DHT22;27511;52.042;5.178;2024-02-21T12:59:31;13.70;99.90
41838;DHT22;27511;52.042;5.178;2024-02-21T13:01:57;13.70;99.90
41838;DHT22;27511;52.042;5.178;2024-02-21T13:04:23;13.60;99.90
41838;DHT22;27511;52.042;5.178;2024-02-21T13:06:49;13.60;99.90
41838;DHT22;27511;52.042;5.178;2024-02-21T13:09:14;13.70;99.90
41838;DHT22;27511;52.042;5.178;2024-02-21T13:11:40;13.50;99.90
41838;DHT22;27511;52.042;5.178;2024-02-21T13:14:07;13.70;99.90
41838;DHT22;27511;52.042;5.178;2024-02-21T13:16:33;13.70;99.90
41838;DHT22;27511;52.042;5.178;2024-02-21T13:19:05;13.50;99.90
41838;DHT22;27511;52.042;5.178;2024-02-21T13:21:31;13.30;99.90
41838;DHT22;27511;52.042;5.178;2024-02-21T13:23:56;13.50;99.90
41838;DHT22;27511;52.042;5.178;2024-02-21T13:26:22;13.40;99.90
41838;DHT22;27511;52.042;5.178;2024-02-21T13:28:48;13.10;99.90
41838;DHT22;27511;52.042;5.178;2024-02-21T13:31:14;13.00;99.90
41838;DHT22;27511;52.042;5.178;2024-02-21T13:33:42;13.10;99.90
41838;DHT22;27511;52.042;5.178;2024-02-21T13:36:09;12.70;99.90
41838;DHT22;27511;52.042;5.178;2024-02-21T13:38:35;12.70;99.90
41838;DHT22;27511;52.042;5.178;2024-02-21T13:41:01;12.80;99.90
41838;DHT22;27511;52.042;5.178;2024-02-21T13:43:26;12.90;99.90
41838;DHT22;27511;52.042;5.178;2024-02-21T13:46:00;13.00;99.90
41838;DHT22;27511;52.042;5.178;2024-02-21T13:48:30;12.90;99.90
41838;DHT22;27511;52.042;5.178;2024-02-21T13:50:56;13.00;99.90
41838;DHT22;27511;52.042;5.178;2024-02-21T13:53:22;13.10;99.90
41838;DHT22;27511;52.042;5.178;2024-02-21T13:55:49;13.50;99.90
41838;DHT22;27511;52.042;5.178;2024-02-21T13:58:15;13.20;99.90
41838;DHT22;27511;52.042;5.178;2024-02-21T14:00:41;13.20;99.90
41838;DHT22;27511;52.042;5.178;2024-02-21T14:03:06;12.90;99.90
41838;DHT22;27511;52.042;5.178;2024-02-21T14:05:32;12.80;99.90
41838;DHT22;27511;52.042;5.178;2024-02-21T14:07:58;13.00;99.90
41838;DHT22;27511;52.042;5.178;2024-02-21T14:10:23;13.10;99.90
41838;DHT22;27511;52.042;5.178;2024-02-21T14:12:49;12.90;99.90
41838;DHT22;27511;52.042;5.178;2024-02-21T14:15:15;12.90;99.90
41838;DHT22;27511;52.042;5.178;2024-02-21T14:17:42;12.80;99.90
41838;DHT22;27511;52.042;5.178;2024-02-21T14:20:08;12.80;99.90
41838;DHT22;27511;52.042;5.178;2024-02-21T14:22:33;12.70;99.90
41838;DHT22;27511;52.042;5.178;2024-02-21T14:25:00;12.60;99.90
41838;DHT22;27511;52.042;5.178;2024-02-21T14:27:26;12.80;99.90
41838;DHT22;27511;52.042;5.178;2024-02-21T14:29:52;12.90;99.90
41838;DHT22;27511;52.042;5.178;2024-02-21T14:32:18;13.00;99.90
41838;DHT22;27511;52.042;5.178;2024-02-21T14:34:45;12.80;99.90
41838;DHT22;27511;52.042;5.178;2024-02-21T14:37:11;12.80;99.90
41838;DHT22;27511;52.042;5.178;2024-02-21T14:39:36;13.00;99.90
41838;DHT22;27511;52.042;5.178;2024-02-21T14:42:02;12.60;99.90
41838;DHT22;27511;52.042;5.178;2024-02-21T14:44:28;12.60;99.90
41838;DHT22;27511;52.042;5.178;2024-02-21T14:46:53;12.60;99.90
41838;DHT22;27511;52.042;5.178;2024-02-21T14:49:19;12.70;99.90
41838;DHT22;27511;52.042;5.178;2024-02-21T14:51:45;12.60;99.90
41838;DHT22;27511;52.042;5.178;2024-02-21T14:54:11;12.70;99.90
41838;DHT22;27511;52.042;5.178;2024-02-21T14:56:36;12.70;99.90
41838;DHT22;27511;52.042;5.178;2024-02-21T14:59:02;12.70;99.90
41838;DHT22;27511;52.042;5.178;2024-02-21T15:01:29;12.80;99.90
41838;DHT22;27511;52.042;5.178;2024-02-21T15:03:55;12.60;99.90
41838;DHT22;27511;52.042;5.178;2024-02-21T15:06:20;12.70;99.90
41838;DHT22;27511;52.042;5.178;2024-02-21T15:08:46;12.70;99.90
41838;DHT22;27511;52.042;5.178;2024-02-21T15:11:14;12.60;99.90
41838;DHT22;27511;52.042;5.178;2024-02-21T15:13:39;12.70;99.90
41838;DHT22;27511;52.042;5.178;2024-02-21T15:16:05;12.80;99.90
41838;DHT22;27511;52.042;5.178;2024-02-21T15:18:31;13.00;99.90
41838;DHT22;27511;52.042;5.178;2024-02-21T15:20:59;13.00;99.90
41838;DHT22;27511;52.042;5.178;2024-02-21T15:23:25;12.90;99.90
41838;DHT22;27511;52.042;5.178;2024-02-21T15:25:51;12.70;99.90
41838;DHT22;27511;52.042;5.178;2024-02-21T15:28:16;12.70;99.90
41838;DHT22;27511;52.042;5.178;2024-02-21T15:30:42;12.90;99.90
41838;DHT22;27511;52.042;5.178;2024-02-21T15:33:08;12.60;99.90
41838;DHT22;27511;52.042;5.178;2024-02-21T15:35:35;12.70;99.90
41838;DHT22;27511;52.042;5.178;2024-02-21T15:38:01;12.50;1.00
41838;DHT22;27511;52.042;5.178;2024-02-21T15:40:27;12.40;1.00
41838;DHT22;27511;52.042;5.178;2024-02-21T15:42:52;12.50;99.90
41838;DHT22;27511;52.042;5.178;2024-02-21T15:45:19;12.10;1.00
41838;DHT22;27511;52.042;5.178;2024-02-21T15:47:44;12.00;1.00